sensor_id;sensor_type;location;lat;lon;timestamp;pressure;altitude;pressure_sealevel;temperature;humidity
30708;BME280;17458;48.958;8.284;2023-05-19T00:00:19;100893.88;;;13.60;53.63
30708;BME280;17458;48.958;8.284;2023-05-19T00:03:04;100891.94;;;13.77;53.43
30708;BME280;17458;48.958;8.284;2023-05-19T00:05:54;100892.47;;;13.88;53.36
30708;BME280;17458;48.958;8.284;2023-05-19T00:08:40;100887.66;;;13.80;53.79
30708;BME280;17458;48.958;8.284;2023-05-19T00:11:25;100888.47;;;13.59;54.38
30708;BME280;17458;48.958;8.284;2023-05-19T00:14:10;100879.25;;;13.52;54.48
30708;BME280;17458;48.958;8.284;2023-05-19T00:16:55;100884.28;;;13.65;54.21
30708;BME280;17458;48.958;8.284;2023-05-19T00:19:40;100885.56;;;13.54;54.61
30708;BME280;17458;48.958;8.284;2023-05-19T00:22:24;100891.97;;;13.58;54.50
30708;BME280;17458;48.958;8.284;2023-05-19T00:25:08;100898.59;;;13.48;55.23
30708;BME280;17458;48.958;8.284;2023-05-19T00:27:52;100887.63;;;13.23;55.56
30708;BME280;17458;48.958;8.284;2023-05-19T00:30:36;100894.25;;;13.13;56.30
30708;BME280;17458;48.958;8.284;2023-05-19T00:33:20;100886.25;;;13.13;56.35
30708;BME280;17458;48.958;8.284;2023-05-19T00:36:04;100881.59;;;13.09;56.17
30708;BME280;17458;48.958;8.284;2023-05-19T00:38:49;100882.66;;;13.12;56.00
30708;BME280;17458;48.958;8.284;2023-05-19T00:41:34;100884.03;;;13.22;56.17
30708;BME280;17458;48.958;8.284;2023-05-19T00:44:18;100872.63;;;13.25;55.50
30708;BME280;17458;48.958;8.284;2023-05-19T00:47:02;100884.03;;;13.22;55.84
30708;BME280;17458;48.958;8.284;2023-05-19T00:49:46;100885.59;;;12.99;56.48
30708;BME280;17458;48.958;8.284;2023-05-19T00:52:30;100888.69;;;13.08;56.42
30708;BME280;17458;48.958;8.284;2023-05-19T00:55:14;100883.13;;;13.22;56.13
30708;BME280;17458;48.958;8.284;2023-05-19T00:57:58;100885.34;;;12.95;56.92
30708;BME280;17458;48.958;8.284;2023-05-19T01:00:44;100884.91;;;13.03;56.71
30708;BME280;17458;48.958;8.284;2023-05-19T01:03:30;100887.84;;;12.92;57.27
30708;BME280;17458;48.958;8.284;2023-05-19T01:06:14;100880.88;;;12.76;57.58
30708;BME280;17458;48.958;8.284;2023-05-19T01:08:58;100882.47;;;12.90;57.56
30708;BME280;17458;48.958;8.284;2023-05-19T01:11:42;100877.75;;;13.02;56.80
30708;BME280;17458;48.958;8.284;2023-05-19T01:14:27;100878.72;;;13.04;56.80
30708;BME280;17458;48.958;8.284;2023-05-19T01:17:22;100876.66;;;12.99;57.09
30708;BME280;17458;48.958;8.284;2023-05-19T01:20:21;100869.44;;;12.96;57.05
30708;BME280;17458;48.958;8.284;2023-05-19T01:23:21;100868.00;;;13.03;56.97
30708;BME280;17458;48.958;8.284;2023-05-19T01:32:56;100872.84;;;12.94;56.91
30708;BME280;17458;48.958;8.284;2023-05-19T01:35:42;100867.84;;;13.18;56.70
30708;BME280;17458;48.958;8.284;2023-05-19T01:38:27;100867.44;;;13.10;56.63
30708;BME280;17458;48.958;8.284;2023-05-19T01:41:13;100865.19;;;13.18;56.57
30708;BME280;17458;48.958;8.284;2023-05-19T01:43:57;100875.84;;;13.18;56.22
30708;BME280;17458;48.958;8.284;2023-05-19T01:46:42;100868.97;;;13.23;56.29
30708;BME280;17458;48.958;8.284;2023-05-19T01:49:26;100870.94;;;13.09;56.66
30708;BME280;17458;48.958;8.284;2023-05-19T01:52:11;100864.56;;;12.88;57.06
30708;BME280;17458;48.958;8.284;2023-05-19T01:54:55;100863.25;;;12.97;56.71
30708;BME280;17458;48.958;8.284;2023-05-19T01:58:20;100860.75;;;13.18;56.41
30708;BME280;17458;48.958;8.284;2023-05-19T02:07:24;100869.25;;;13.29;56.29
30708;BME280;17458;48.958;8.284;2023-05-19T02:10:21;100874.31;;;12.87;57.34
30708;BME280;17458;48.958;8.284;2023-05-19T02:13:08;100880.03;;;12.95;57.41
30708;BME280;17458;48.958;8.284;2023-05-19T02:15:57;100885.34;;;13.12;57.09
30708;BME280;17458;48.958;8.284;2023-05-19T02:18:46;100880.25;;;12.99;57.66
30708;BME280;17458;48.958;8.284;2023-05-19T02:21:30;100882.25;;;13.03;57.17
30708;BME280;17458;48.958;8.284;2023-05-19T02:24:14;100891.31;;;12.89;57.59
30708;BME280;17458;48.958;8.284;2023-05-19T02:26:59;100886.50;;;13.00;57.63
30708;BME280;17458;48.958;8.284;2023-05-19T02:29:43;100886.25;;;12.95;57.63
30708;BME280;17458;48.958;8.284;2023-05-19T02:32:27;100882.31;;;12.69;58.51
30708;BME280;17458;48.958;8.284;2023-05-19T02:35:12;100877.75;;;12.67;59.21
30708;BME280;17458;48.958;8.284;2023-05-19T02:37:57;100876.69;;;12.81;58.70
30708;BME280;17458;48.958;8.284;2023-05-19T02:40:42;100869.31;;;12.75;58.99
30708;BME280;17458;48.958;8.284;2023-05-19T02:43:26;100871.59;;;12.68;59.33
30708;BME280;17458;48.958;8.284;2023-05-19T02:46:10;100868.59;;;12.79;58.97
30708;BME280;17458;48.958;8.284;2023-05-19T02:48:54;100871.28;;;12.44;60.19
30708;BME280;17458;48.958;8.284;2023-05-19T02:51:38;100875.22;;;12.52;60.21
30708;BME280;17458;48.958;8.284;2023-05-19T02:54:22;100871.91;;;12.74;59.30
30708;BME280;17458;48.958;8.284;2023-05-19T02:57:06;100869.00;;;12.69;59.72
30708;BME280;17458;48.958;8.284;2023-05-19T02:59:50;100871.81;;;12.72;59.32
30708;BME280;17458;48.958;8.284;2023-05-19T03:02:35;100873.88;;;12.60;59.84
30708;BME280;17458;48.958;8.284;2023-05-19T03:05:19;100865.50;;;12.53;60.14
30708;BME280;17458;48.958;8.284;2023-05-19T03:08:03;100861.31;;;12.58;60.25
30708;BME280;17458;48.958;8.284;2023-05-19T03:10:47;100862.22;;;12.58;60.17
30708;BME280;17458;48.958;8.284;2023-05-19T03:13:31;100867.63;;;12.42;60.71
30708;BME280;17458;48.958;8.284;2023-05-19T03:16:15;100869.41;;;12.25;61.05
30708;BME280;17458;48.958;8.284;2023-05-19T03:18:59;100866.09;;;12.29;61.09
30708;BME280;17458;48.958;8.284;2023-05-19T03:21:43;100863.66;;;12.34;61.05
30708;BME280;17458;48.958;8.284;2023-05-19T03:24:28;100862.22;;;12.40;60.47
30708;BME280;17458;48.958;8.284;2023-05-19T03:27:12;100861.06;;;12.35;60.71
30708;BME280;17458;48.958;8.284;2023-05-19T03:29:56;100863.03;;;12.39;60.55
30708;BME280;17458;48.958;8.284;2023-05-19T03:32:41;100863.50;;;12.31;60.67
30708;BME280;17458;48.958;8.284;2023-05-19T03:35:26;100862.06;;;12.37;60.85
30708;BME280;17458;48.958;8.284;2023-05-19T03:38:10;100862.22;;;12.40;60.66
30708;BME280;17458;48.958;8.284;2023-05-19T03:40:54;100863.25;;;12.26;61.13
30708;BME280;17458;48.958;8.284;2023-05-19T03:43:38;100878.41;;;12.27;61.32
30708;BME280;17458;48.958;8.284;2023-05-19T03:46:24;100877.41;;;12.25;61.08
30708;BME280;17458;48.958;8.284;2023-05-19T03:49:27;100885.19;;;12.38;60.69
30708;BME280;17458;48.958;8.284;2023-05-19T03:52:46;100881.81;;;12.25;60.85
30708;BME280;17458;48.958;8.284;2023-05-19T03:55:44;100881.44;;;12.17;61.33
30708;BME280;17458;48.958;8.284;2023-05-19T03:58:30;100885.94;;;12.36;60.74
30708;BME280;17458;48.958;8.284;2023-05-19T04:01:14;100892.22;;;12.54;60.71
30708;BME280;17458;48.958;8.284;2023-05-19T04:03:58;100885.09;;;12.19;61.00
30708;BME280;17458;48.958;8.284;2023-05-19T04:06:42;100881.97;;;12.28;61.38
30708;BME280;17458;48.958;8.284;2023-05-19T04:09:26;100892.25;;;12.38;60.63
30708;BME280;17458;48.958;8.284;2023-05-19T04:12:10;100888.56;;;12.52;60.25
30708;BME280;17458;48.958;8.284;2023-05-19T04:14:54;100886.03;;;12.37;61.09
30708;BME280;17458;48.958;8.284;2023-05-19T04:17:38;100877.03;;;12.35;60.75
30708;BME280;17458;48.958;8.284;2023-05-19T04:20:22;100877.75;;;12.49;60.41
30708;BME280;17458;48.958;8.284;2023-05-19T04:23:07;100881.31;;;12.50;60.49
30708;BME280;17458;48.958;8.284;2023-05-19T04:25:51;100887.16;;;12.25;60.75
30708;BME280;17458;48.958;8.284;2023-05-19T04:28:37;100897.50;;;12.36;61.14
30708;BME280;17458;48.958;8.284;2023-05-19T04:31:22;100889.19;;;12.47;60.29
30708;BME280;17458;48.958;8.284;2023-05-19T04:34:07;100892.75;;;12.47;60.05
30708;BME280;17458;48.958;8.284;2023-05-19T04:36:51;100898.63;;;12.06;61.33
30708;BME280;17458;48.958;8.284;2023-05-19T04:39:35;100899.78;;;12.29;61.20
30708;BME280;17458;48.958;8.284;2023-05-19T04:42:22;100899.72;;;12.27;61.41
30708;BME280;17458;48.958;8.284;2023-05-19T04:45:09;100899.59;;;12.42;60.71
30708;BME280;17458;48.958;8.284;2023-05-19T04:47:57;100901.09;;;12.37;60.79
30708;BME280;17458;48.958;8.284;2023-05-19T04:50:41;100907.31;;;12.37;60.86
30708;BME280;17458;48.958;8.284;2023-05-19T04:53:29;100899.84;;;12.82;60.24
30708;BME280;17458;48.958;8.284;2023-05-19T04:56:14;100898.34;;;13.06;59.23
30708;BME280;17458;48.958;8.284;2023-05-19T04:58:59;100903.56;;;12.86;59.73
30708;BME280;17458;48.958;8.284;2023-05-19T05:01:44;100911.03;;;12.57;59.74
30708;BME280;17458;48.958;8.284;2023-05-19T05:04:30;100904.88;;;12.76;59.93
30708;BME280;17458;48.958;8.284;2023-05-19T05:07:16;100905.09;;;12.98;59.03
30708;BME280;17458;48.958;8.284;2023-05-19T05:09:59;100907.16;;;13.04;58.55
30708;BME280;17458;48.958;8.284;2023-05-19T05:12:44;100909.81;;;13.04;58.57
30708;BME280;17458;48.958;8.284;2023-05-19T05:15:28;100904.78;;;12.92;59.14
30708;BME280;17458;48.958;8.284;2023-05-19T05:18:15;100912.00;;;13.30;58.48
30708;BME280;17458;48.958;8.284;2023-05-19T05:20:59;100910.59;;;13.19;57.75
30708;BME280;17458;48.958;8.284;2023-05-19T05:23:44;100906.56;;;13.85;57.37
30708;BME280;17458;48.958;8.284;2023-05-19T05:26:32;100908.25;;;13.64;56.88
30708;BME280;17458;48.958;8.284;2023-05-19T05:29:18;100913.69;;;14.25;56.21
30708;BME280;17458;48.958;8.284;2023-05-19T05:32:03;100913.38;;;14.38;55.65
30708;BME280;17458;48.958;8.284;2023-05-19T05:34:47;100912.97;;;14.69;54.75
30708;BME280;17458;48.958;8.284;2023-05-19T05:37:33;100910.09;;;15.28;52.79
30708;BME280;17458;48.958;8.284;2023-05-19T05:40:17;100907.72;;;15.58;52.53
30708;BME280;17458;48.958;8.284;2023-05-19T05:43:02;100912.03;;;14.89;53.27
30708;BME280;17458;48.958;8.284;2023-05-19T05:45:50;100910.69;;;14.57;53.40
30708;BME280;17458;48.958;8.284;2023-05-19T05:48:34;100899.56;;;14.89;52.72
30708;BME280;17458;48.958;8.284;2023-05-19T05:51:21;100894.97;;;13.65;55.48
30708;BME280;17458;48.958;8.284;2023-05-19T05:54:10;100902.63;;;14.56;54.48
30708;BME280;17458;48.958;8.284;2023-05-19T05:57:00;100911.63;;;14.38;54.05
30708;BME280;17458;48.958;8.284;2023-05-19T05:59:45;100907.50;;;14.86;53.69
30708;BME280;17458;48.958;8.284;2023-05-19T06:02:30;100906.31;;;14.80;53.17
30708;BME280;17458;48.958;8.284;2023-05-19T06:05:16;100904.56;;;14.60;53.05
30708;BME280;17458;48.958;8.284;2023-05-19T06:08:02;100896.94;;;14.69;53.42
30708;BME280;17458;48.958;8.284;2023-05-19T06:10:47;100896.66;;;14.63;54.02
30708;BME280;17458;48.958;8.284;2023-05-19T06:13:32;100901.78;;;14.37;53.57
30708;BME280;17458;48.958;8.284;2023-05-19T06:16:16;100900.31;;;14.65;53.80
30708;BME280;17458;48.958;8.284;2023-05-19T06:19:02;100898.63;;;14.46;53.37
30708;BME280;17458;48.958;8.284;2023-05-19T06:21:46;100896.53;;;14.80;53.05
30708;BME280;17458;48.958;8.284;2023-05-19T06:24:32;100897.75;;;14.88;53.74
30708;BME280;17458;48.958;8.284;2023-05-19T06:27:16;100889.56;;;14.63;53.21
30708;BME280;17458;48.958;8.284;2023-05-19T06:30:00;100899.75;;;15.15;52.35
30708;BME280;17458;48.958;8.284;2023-05-19T06:32:48;100901.59;;;15.17;51.43
30708;BME280;17458;48.958;8.284;2023-05-19T06:35:32;100896.63;;;15.27;51.46
30708;BME280;17458;48.958;8.284;2023-05-19T06:38:16;100898.81;;;15.59;50.64
30708;BME280;17458;48.958;8.284;2023-05-19T06:41:00;100901.94;;;15.25;51.04
30708;BME280;17458;48.958;8.284;2023-05-19T06:43:44;100914.50;;;15.05;51.21
30708;BME280;17458;48.958;8.284;2023-05-19T06:46:31;100914.31;;;15.23;51.55
30708;BME280;17458;48.958;8.284;2023-05-19T06:49:15;100901.28;;;15.77;50.19
30708;BME280;17458;48.958;8.284;2023-05-19T06:52:02;100901.56;;;16.08;49.67
30708;BME280;17458;48.958;8.284;2023-05-19T06:54:47;100905.06;;;16.31;48.67
30708;BME280;17458;48.958;8.284;2023-05-19T06:57:33;100908.13;;;16.16;48.89
30708;BME280;17458;48.958;8.284;2023-05-19T07:00:18;100904.66;;;16.44;49.40
30708;BME280;17458;48.958;8.284;2023-05-19T07:03:05;100901.66;;;16.35;48.94
30708;BME280;17458;48.958;8.284;2023-05-19T07:05:49;100902.69;;;16.39;49.27
30708;BME280;17458;48.958;8.284;2023-05-19T07:08:33;100905.00;;;16.79;47.68
30708;BME280;17458;48.958;8.284;2023-05-19T07:11:20;100904.28;;;16.34;50.66
30708;BME280;17458;48.958;8.284;2023-05-19T07:14:05;100900.72;;;16.84;49.18
30708;BME280;17458;48.958;8.284;2023-05-19T07:16:49;100887.19;;;16.81;48.36
30708;BME280;17458;48.958;8.284;2023-05-19T07:19:34;100889.66;;;16.75;47.88
30708;BME280;17458;48.958;8.284;2023-05-19T07:22:18;100891.81;;;17.13;47.57
30708;BME280;17458;48.958;8.284;2023-05-19T07:25:02;100890.56;;;17.02;47.97
30708;BME280;17458;48.958;8.284;2023-05-19T07:27:47;100879.94;;;17.33;47.24
30708;BME280;17458;48.958;8.284;2023-05-19T07:30:31;100882.91;;;17.14;48.97
30708;BME280;17458;48.958;8.284;2023-05-19T07:33:15;100881.28;;;17.48;46.85
30708;BME280;17458;48.958;8.284;2023-05-19T07:35:59;100883.25;;;17.53;46.51
30708;BME280;17458;48.958;8.284;2023-05-19T07:38:46;100884.78;;;18.05;46.25
30708;BME280;17458;48.958;8.284;2023-05-19T07:41:30;100875.72;;;18.01;46.23
30708;BME280;17458;48.958;8.284;2023-05-19T07:44:14;100884.53;;;17.09;46.77
30708;BME280;17458;48.958;8.284;2023-05-19T07:46:58;100884.44;;;17.34;47.29
30708;BME280;17458;48.958;8.284;2023-05-19T07:49:42;100869.19;;;18.25;47.49
30708;BME280;17458;48.958;8.284;2023-05-19T07:52:27;100874.19;;;18.11;47.37
30708;BME280;17458;48.958;8.284;2023-05-19T07:55:11;100873.38;;;18.14;46.83
30708;BME280;17458;48.958;8.284;2023-05-19T07:57:56;100870.63;;;18.11;45.40
30708;BME280;17458;48.958;8.284;2023-05-19T08:00:40;100877.16;;;17.89;46.57
30708;BME280;17458;48.958;8.284;2023-05-19T08:03:28;100874.59;;;17.93;46.72
30708;BME280;17458;48.958;8.284;2023-05-19T08:06:13;100871.94;;;17.93;46.03
30708;BME280;17458;48.958;8.284;2023-05-19T08:08:57;100876.41;;;18.59;46.18
30708;BME280;17458;48.958;8.284;2023-05-19T08:11:41;100870.13;;;18.58;45.54
30708;BME280;17458;48.958;8.284;2023-05-19T08:14:25;100864.97;;;18.67;45.62
30708;BME280;17458;48.958;8.284;2023-05-19T08:17:10;100849.88;;;18.72;45.55
30708;BME280;17458;48.958;8.284;2023-05-19T08:19:54;100849.16;;;18.81;44.93
30708;BME280;17458;48.958;8.284;2023-05-19T08:22:39;100853.72;;;19.20;45.03
30708;BME280;17458;48.958;8.284;2023-05-19T08:25:23;100860.59;;;19.07;44.81
30708;BME280;17458;48.958;8.284;2023-05-19T08:28:07;100861.59;;;19.12;44.07
30708;BME280;17458;48.958;8.284;2023-05-19T08:30:51;100851.06;;;19.60;43.59
30708;BME280;17458;48.958;8.284;2023-05-19T08:33:35;100845.59;;;19.57;44.11
30708;BME280;17458;48.958;8.284;2023-05-19T08:36:19;100852.25;;;19.34;43.78
30708;BME280;17458;48.958;8.284;2023-05-19T08:39:04;100847.38;;;19.57;43.96
30708;BME280;17458;48.958;8.284;2023-05-19T08:41:49;100853.34;;;20.29;43.18
30708;BME280;17458;48.958;8.284;2023-05-19T08:44:33;100837.28;;;19.89;43.41
30708;BME280;17458;48.958;8.284;2023-05-19T08:47:17;100847.56;;;20.09;43.13
30708;BME280;17458;48.958;8.284;2023-05-19T08:50:04;100836.09;;;19.34;43.14
30708;BME280;17458;48.958;8.284;2023-05-19T08:52:52;100838.56;;;18.87;43.86
30708;BME280;17458;48.958;8.284;2023-05-19T08:56:00;100833.72;;;19.10;43.86
30708;BME280;17458;48.958;8.284;2023-05-19T08:58:44;100831.22;;;19.18;44.89
30708;BME280;17458;48.958;8.284;2023-05-19T09:01:29;100822.50;;;18.90;44.16
30708;BME280;17458;48.958;8.284;2023-05-19T09:04:14;100823.91;;;18.74;44.35
30708;BME280;17458;48.958;8.284;2023-05-19T09:06:59;100823.41;;;19.30;44.38
30708;BME280;17458;48.958;8.284;2023-05-19T09:09:47;100813.81;;;19.85;44.18
30708;BME280;17458;48.958;8.284;2023-05-19T09:12:32;100826.13;;;19.70;43.42
30708;BME280;17458;48.958;8.284;2023-05-19T09:15:17;100818.19;;;19.36;42.86
30708;BME280;17458;48.958;8.284;2023-05-19T09:18:08;100810.75;;;19.65;42.92
30708;BME280;17458;48.958;8.284;2023-05-19T09:20:58;100812.41;;;19.19;42.77
30708;BME280;17458;48.958;8.284;2023-05-19T09:23:45;100806.00;;;19.98;42.33
30708;BME280;17458;48.958;8.284;2023-05-19T09:26:40;100812.19;;;19.93;42.12
30708;BME280;17458;48.958;8.284;2023-05-19T09:29:24;100814.53;;;19.74;42.52
30708;BME280;17458;48.958;8.284;2023-05-19T09:32:08;100810.38;;;19.92;42.22
30708;BME280;17458;48.958;8.284;2023-05-19T09:34:52;100810.41;;;20.40;40.49
30708;BME280;17458;48.958;8.284;2023-05-19T09:37:39;100803.63;;;20.65;39.82
30708;BME280;17458;48.958;8.284;2023-05-19T09:40:26;100807.50;;;20.31;40.49
30708;BME280;17458;48.958;8.284;2023-05-19T09:43:11;100801.44;;;20.98;39.09
30708;BME280;17458;48.958;8.284;2023-05-19T09:46:06;100803.34;;;20.49;39.86
30708;BME280;17458;48.958;8.284;2023-05-19T09:48:56;100799.13;;;20.65;39.34
30708;BME280;17458;48.958;8.284;2023-05-19T09:51:40;100789.72;;;19.92;40.15
30708;BME280;17458;48.958;8.284;2023-05-19T09:54:25;100791.66;;;19.99;40.69
30708;BME280;17458;48.958;8.284;2023-05-19T09:57:17;100789.28;;;19.71;39.97
30708;BME280;17458;48.958;8.284;2023-05-19T10:00:08;100789.47;;;19.78;40.25
30708;BME280;17458;48.958;8.284;2023-05-19T10:03:02;100794.44;;;20.04;40.29
30708;BME280;17458;48.958;8.284;2023-05-19T10:05:48;100790.94;;;20.09;40.67
30708;BME280;17458;48.958;8.284;2023-05-19T10:08:33;100796.50;;;20.18;40.89
30708;BME280;17458;48.958;8.284;2023-05-19T10:11:19;100775.97;;;19.80;40.54
30708;BME280;17458;48.958;8.284;2023-05-19T10:14:04;100781.31;;;20.25;40.01
30708;BME280;17458;48.958;8.284;2023-05-19T10:16:50;100785.19;;;20.38;39.14
30708;BME280;17458;48.958;8.284;2023-05-19T10:19:36;100778.41;;;20.64;38.81
30708;BME280;17458;48.958;8.284;2023-05-19T10:22:20;100776.41;;;20.51;38.96
30708;BME280;17458;48.958;8.284;2023-05-19T10:25:05;100772.38;;;20.80;38.12
30708;BME280;17458;48.958;8.284;2023-05-19T10:28:00;100771.72;;;21.60;39.29
30708;BME280;17458;48.958;8.284;2023-05-19T10:33:46;100771.84;;;21.72;36.88
30708;BME280;17458;48.958;8.284;2023-05-19T10:36:54;100763.25;;;22.08;36.67
30708;BME280;17458;48.958;8.284;2023-05-19T10:39:42;100774.50;;;21.68;36.73
30708;BME280;17458;48.958;8.284;2023-05-19T10:42:41;100771.53;;;21.45;37.32
30708;BME280;17458;48.958;8.284;2023-05-19T10:45:29;100764.75;;;21.12;37.08
30708;BME280;17458;48.958;8.284;2023-05-19T10:48:18;100776.53;;;20.59;37.45
30708;BME280;17458;48.958;8.284;2023-05-19T10:51:03;100769.94;;;20.97;38.05
30708;BME280;17458;48.958;8.284;2023-05-19T10:53:47;100770.28;;;21.20;37.04
30708;BME280;17458;48.958;8.284;2023-05-19T10:56:33;100765.25;;;20.85;37.75
30708;BME280;17458;48.958;8.284;2023-05-19T10:59:34;100769.44;;;21.24;36.99
30708;BME280;17458;48.958;8.284;2023-05-19T11:02:39;100765.84;;;21.25;37.70
30708;BME280;17458;48.958;8.284;2023-05-19T11:05:28;100759.16;;;20.99;37.88
30708;BME280;17458;48.958;8.284;2023-05-19T11:08:12;100764.88;;;20.60;38.47
30708;BME280;17458;48.958;8.284;2023-05-19T11:11:15;100764.44;;;20.90;38.71
30708;BME280;17458;48.958;8.284;2023-05-19T11:14:00;100767.94;;;20.30;38.95
30708;BME280;17458;48.958;8.284;2023-05-19T11:16:52;100761.69;;;20.32;38.84
30708;BME280;17458;48.958;8.284;2023-05-19T11:19:38;100761.47;;;20.22;39.01
30708;BME280;17458;48.958;8.284;2023-05-19T11:22:26;100768.06;;;20.36;38.78
30708;BME280;17458;48.958;8.284;2023-05-19T11:25:10;100756.13;;;20.25;38.77
30708;BME280;17458;48.958;8.284;2023-05-19T11:27:54;100743.16;;;20.01;39.80
30708;BME280;17458;48.958;8.284;2023-05-19T11:30:43;100743.28;;;20.10;40.70
30708;BME280;17458;48.958;8.284;2023-05-19T11:33:28;100743.34;;;20.63;39.54
30708;BME280;17458;48.958;8.284;2023-05-19T11:36:16;100737.69;;;21.09;39.03
30708;BME280;17458;48.958;8.284;2023-05-19T11:39:01;100756.09;;;20.73;38.49
30708;BME280;17458;48.958;8.284;2023-05-19T11:41:46;100749.94;;;20.83;39.25
30708;BME280;17458;48.958;8.284;2023-05-19T11:44:30;100751.38;;;21.20;38.56
30708;BME280;17458;48.958;8.284;2023-05-19T11:47:19;100752.44;;;21.34;39.76
30708;BME280;17458;48.958;8.284;2023-05-19T11:50:03;100750.94;;;20.90;39.27
30708;BME280;17458;48.958;8.284;2023-05-19T11:52:49;100756.31;;;20.88;39.06
30708;BME280;17458;48.958;8.284;2023-05-19T11:55:34;100753.63;;;20.90;40.08
30708;BME280;17458;48.958;8.284;2023-05-19T11:58:24;100748.81;;;21.29;38.49
30708;BME280;17458;48.958;8.284;2023-05-19T12:01:09;100752.69;;;20.87;38.70
30708;BME280;17458;48.958;8.284;2023-05-19T12:03:54;100756.88;;;21.26;38.47
30708;BME280;17458;48.958;8.284;2023-05-19T12:06:38;100754.09;;;21.21;38.67
30708;BME280;17458;48.958;8.284;2023-05-19T12:09:22;100751.97;;;20.99;38.71
30708;BME280;17458;48.958;8.284;2023-05-19T12:12:07;100763.53;;;20.92;38.70
30708;BME280;17458;48.958;8.284;2023-05-19T12:14:54;100759.34;;;21.12;39.40
30708;BME280;17458;48.958;8.284;2023-05-19T12:17:39;100761.25;;;20.59;39.58
30708;BME280;17458;48.958;8.284;2023-05-19T12:20:28;100769.78;;;20.86;39.89
30708;BME280;17458;48.958;8.284;2023-05-19T12:23:17;100761.16;;;20.53;41.36
30708;BME280;17458;48.958;8.284;2023-05-19T12:26:07;100756.44;;;20.97;39.47
30708;BME280;17458;48.958;8.284;2023-05-19T12:28:53;100753.97;;;20.53;40.13
30708;BME280;17458;48.958;8.284;2023-05-19T12:31:37;100762.84;;;19.97;40.87
30708;BME280;17458;48.958;8.284;2023-05-19T12:34:21;100748.72;;;20.64;39.79
30708;BME280;17458;48.958;8.284;2023-05-19T12:37:06;100767.53;;;20.58;40.39
30708;BME280;17458;48.958;8.284;2023-05-19T12:39:50;100773.13;;;20.17;41.41
30708;BME280;17458;48.958;8.284;2023-05-19T12:42:34;100764.75;;;20.02;41.56
30708;BME280;17458;48.958;8.284;2023-05-19T12:45:21;100768.44;;;20.09;42.00
30708;BME280;17458;48.958;8.284;2023-05-19T12:48:12;100769.38;;;20.11;42.05
30708;BME280;17458;48.958;8.284;2023-05-19T12:50:58;100766.22;;;20.35;41.30
30708;BME280;17458;48.958;8.284;2023-05-19T12:53:42;100763.56;;;19.87;41.73
30708;BME280;17458;48.958;8.284;2023-05-19T12:56:27;100765.34;;;20.36;41.57
30708;BME280;17458;48.958;8.284;2023-05-19T12:59:20;100758.25;;;19.91;42.00
30708;BME280;17458;48.958;8.284;2023-05-19T13:02:05;100766.41;;;20.44;41.86
30708;BME280;17458;48.958;8.284;2023-05-19T13:04:49;100769.63;;;20.25;41.40
30708;BME280;17458;48.958;8.284;2023-05-19T13:07:33;100759.50;;;20.61;41.45
30708;BME280;17458;48.958;8.284;2023-05-19T13:10:19;100756.31;;;20.88;40.34
30708;BME280;17458;48.958;8.284;2023-05-19T13:13:04;100758.91;;;20.82;41.11
30708;BME280;17458;48.958;8.284;2023-05-19T13:15:48;100752.81;;;20.97;41.07
30708;BME280;17458;48.958;8.284;2023-05-19T13:18:32;100742.41;;;20.61;41.12
30708;BME280;17458;48.958;8.284;2023-05-19T13:21:18;100741.78;;;20.80;41.42
30708;BME280;17458;48.958;8.284;2023-05-19T13:24:02;100744.34;;;20.71;40.80
30708;BME280;17458;48.958;8.284;2023-05-19T13:26:47;100741.56;;;20.66;40.81
30708;BME280;17458;48.958;8.284;2023-05-19T13:29:31;100743.41;;;20.69;41.29
30708;BME280;17458;48.958;8.284;2023-05-19T13:32:15;100737.84;;;20.58;41.23
30708;BME280;17458;48.958;8.284;2023-05-19T13:35:00;100738.31;;;20.88;41.25
30708;BME280;17458;48.958;8.284;2023-05-19T13:37:44;100740.69;;;21.28;40.30
30708;BME280;17458;48.958;8.284;2023-05-19T13:40:29;100740.34;;;21.06;41.72
30708;BME280;17458;48.958;8.284;2023-05-19T13:43:15;100731.47;;;21.13;42.33
30708;BME280;17458;48.958;8.284;2023-05-19T13:45:59;100732.53;;;20.64;41.86
30708;BME280;17458;48.958;8.284;2023-05-19T13:48:43;100738.06;;;21.35;40.97
30708;BME280;17458;48.958;8.284;2023-05-19T13:51:27;100731.78;;;21.36;40.95
30708;BME280;17458;48.958;8.284;2023-05-19T13:54:11;100734.13;;;21.12;41.25
30708;BME280;17458;48.958;8.284;2023-05-19T13:56:55;100739.34;;;21.66;42.03
30708;BME280;17458;48.958;8.284;2023-05-19T13:59:39;100731.81;;;21.39;40.58
30708;BME280;17458;48.958;8.284;2023-05-19T14:02:23;100737.16;;;21.33;40.71
30708;BME280;17458;48.958;8.284;2023-05-19T14:05:07;100727.53;;;21.56;40.71
30708;BME280;17458;48.958;8.284;2023-05-19T14:07:51;100726.56;;;21.51;40.34
30708;BME280;17458;48.958;8.284;2023-05-19T14:10:36;100727.53;;;21.58;40.44
30708;BME280;17458;48.958;8.284;2023-05-19T14:13:20;100716.75;;;20.90;40.44
30708;BME280;17458;48.958;8.284;2023-05-19T14:16:05;100713.50;;;21.17;40.95
30708;BME280;17458;48.958;8.284;2023-05-19T14:18:51;100707.53;;;20.76;40.78
30708;BME280;17458;48.958;8.284;2023-05-19T14:21:36;100719.25;;;20.78;41.02
30708;BME280;17458;48.958;8.284;2023-05-19T14:24:20;100715.72;;;20.82;41.60
30708;BME280;17458;48.958;8.284;2023-05-19T14:27:04;100716.00;;;21.02;41.96
30708;BME280;17458;48.958;8.284;2023-05-19T14:29:48;100713.31;;;21.03;41.52
30708;BME280;17458;48.958;8.284;2023-05-19T14:32:36;100714.03;;;20.88;41.12
30708;BME280;17458;48.958;8.284;2023-05-19T14:35:19;100708.81;;;20.42;41.86
30708;BME280;17458;48.958;8.284;2023-05-19T14:38:03;100715.22;;;20.48;42.20
30708;BME280;17458;48.958;8.284;2023-05-19T14:40:47;100712.25;;;20.33;42.55
30708;BME280;17458;48.958;8.284;2023-05-19T14:43:31;100701.75;;;20.48;41.84